sensor_id;sensor_type;location;lat;lon;timestamp;temperature;humidity
20858;DHT22;10589;53.636;10.012;2023-04-15T03:46:41;7.50;99.90
20858;DHT22;10589;53.636;10.012;2023-04-15T03:49:07;7.50;99.90
20858;DHT22;10589;53.636;10.012;2023-04-15T03:51:33;7.50;99.90
20858;DHT22;10589;53.636;10.012;2023-04-15T03:53:59;7.50;99.90
20858;DHT22;10589;53.636;10.012;2023-04-15T03:56:24;7.50;99.90
20858;DHT22;10589;53.636;10.012;2023-04-15T03:58:50;7.50;99.90
20858;DHT22;10589;53.636;10.012;2023-04-15T04:01:16;7.50;99.90
20858;DHT22;10589;53.636;10.012;2023-04-15T04:03:41;7.50;99.90
20858;DHT22;10589;53.636;10.012;2023-04-15T04:06:07;7.50;99.90
20858;DHT22;10589;53.636;10.012;2023-04-15T04:08:32;7.50;99.90
20858;DHT22;10589;53.636;10.012;2023-04-15T04:10:58;7.50;99.90
20858;DHT22;10589;53.636;10.012;2023-04-15T04:13:24;7.50;99.90
20858;DHT22;10589;53.636;10.012;2023-04-15T04:15:50;7.50;99.90
20858;DHT22;10589;53.636;10.012;2023-04-15T04:18:15;7.50;99.90
20858;DHT22;10589;53.636;10.012;2023-04-15T04:20:41;7.50;99.90
20858;DHT22;10589;53.636;10.012;2023-04-15T04:23:07;7.60;99.90
20858;DHT22;10589;53.636;10.012;2023-04-15T04:25:32;7.60;99.90
20858;DHT22;10589;53.636;10.012;2023-04-15T04:27:58;7.60;99.90
20858;DHT22;10589;53.636;10.012;2023-04-15T04:30:24;7.60;99.90
20858;DHT22;10589;53.636;10.012;2023-04-15T04:32:49;7.50;99.90
20858;DHT22;10589;53.636;10.012;2023-04-15T04:35:16;7.60;99.90
20858;DHT22;10589;53.636;10.012;2023-04-15T04:37:41;7.60;99.90
20858;DHT22;10589;53.636;10.012;2023-04-15T04:40:07;7.60;99.90
20858;DHT22;10589;53.636;10.012;2023-04-15T04:42:33;7.60;99.90
20858;DHT22;10589;53.636;10.012;2023-04-15T04:44:59;7.60;99.90
20858;DHT22;10589;53.636;10.012;2023-04-15T04:47:25;7.60;99.90
20858;DHT22;10589;53.636;10.012;2023-04-15T04:49:50;7.60;99.90
20858;DHT22;10589;53.636;10.012;2023-04-15T04:52:16;7.70;99.90
20858;DHT22;10589;53.636;10.012;2023-04-15T04:54:42;7.60;99.90
20858;DHT22;10589;53.636;10.012;2023-04-15T04:57:07;7.70;99.90
20858;DHT22;10589;53.636;10.012;2023-04-15T04:59:33;7.70;99.90
20858;DHT22;10589;53.636;10.012;2023-04-15T05:01:58;7.70;99.90
20858;DHT22;10589;53.636;10.012;2023-04-15T05:04:24;7.60;99.90
20858;DHT22;10589;53.636;10.012;2023-04-15T05:06:50;7.70;99.90
20858;DHT22;10589;53.636;10.012;2023-04-15T05:09:16;7.70;99.90
20858;DHT22;10589;53.636;10.012;2023-04-15T05:11:42;7.70;99.90
20858;DHT22;10589;53.636;10.012;2023-04-15T05:14:07;7.70;99.90
20858;DHT22;10589;53.636;10.012;2023-04-15T05:16:33;7.70;99.90
20858;DHT22;10589;53.636;10.012;2023-04-15T05:18:58;7.70;99.90
20858;DHT22;10589;53.636;10.012;2023-04-15T05:21:24;7.70;99.90
20858;DHT22;10589;53.636;10.012;2023-04-15T05:23:50;7.80;99.90
20858;DHT22;10589;53.636;10.012;2023-04-15T05:26:16;7.80;99.90
20858;DHT22;10589;53.636;10.012;2023-04-15T05:28:42;7.80;99.90
20858;DHT22;10589;53.636;10.012;2023-04-15T05:31:07;7.80;99.90
20858;DHT22;10589;53.636;10.012;2023-04-15T05:33:33;7.80;99.90
20858;DHT22;10589;53.636;10.012;2023-04-15T05:35:58;7.90;99.90
20858;DHT22;10589;53.636;10.012;2023-04-15T05:38:24;7.80;99.90
20858;DHT22;10589;53.636;10.012;2023-04-15T05:40:50;7.80;99.90
20858;DHT22;10589;53.636;10.012;2023-04-15T05:43:16;7.80;99.90
20858;DHT22;10589;53.636;10.012;2023-04-15T05:45:41;7.80;99.90
20858;DHT22;10589;53.636;10.012;2023-04-15T05:48:08;7.80;99.90
20858;DHT22;10589;53.636;10.012;2023-04-15T05:50:33;7.80;99.90
20858;DHT22;10589;53.636;10.012;2023-04-15T05:53:00;7.90;99.90
20858;DHT22;10589;53.636;10.012;2023-04-15T05:55:26;7.90;99.90
20858;DHT22;10589;53.636;10.012;2023-04-15T05:57:51;7.90;99.90
20858;DHT22;10589;53.636;10.012;2023-04-15T06:00:17;7.90;99.90
20858;DHT22;10589;53.636;10.012;2023-04-15T06:02:43;7.90;99.90
20858;DHT22;10589;53.636;10.012;2023-04-15T06:05:08;7.90;99.90
20858;DHT22;10589;53.636;10.012;2023-04-15T06:07:35;7.90;99.90
20858;DHT22;10589;53.636;10.012;2023-04-15T06:10:02;7.90;99.90
20858;DHT22;10589;53.636;10.012;2023-04-15T06:12:28;7.90;99.90
20858;DHT22;10589;53.636;10.012;2023-04-15T06:14:54;7.90;99.90
20858;DHT22;10589;53.636;10.012;2023-04-15T06:17:19;7.90;99.90
20858;DHT22;10589;53.636;10.012;2023-04-15T06:19:45;8.00;99.90
20858;DHT22;10589;53.636;10.012;2023-04-15T06:22:11;7.90;99.90
20858;DHT22;10589;53.636;10.012;2023-04-15T06:24:36;8.00;99.90
20858;DHT22;10589;53.636;10.012;2023-04-15T06:27:02;8.00;99.90
20858;DHT22;10589;53.636;10.012;2023-04-15T06:29:28;8.00;99.90
20858;DHT22;10589;53.636;10.012;2023-04-15T06:31:53;8.00;99.90
20858;DHT22;10589;53.636;10.012;2023-04-15T06:34:20;8.00;99.90
20858;DHT22;10589;53.636;10.012;2023-04-15T06:36:46;8.00;99.90
20858;DHT22;10589;53.636;10.012;2023-04-15T06:39:11;8.00;99.90
20858;DHT22;10589;53.636;10.012;2023-04-15T06:41:37;8.00;99.90
20858;DHT22;10589;53.636;10.012;2023-04-15T06:44:03;8.00;99.90
20858;DHT22;10589;53.636;10.012;2023-04-15T06:46:28;8.00;99.90
20858;DHT22;10589;53.636;10.012;2023-04-15T06:48:54;8.10;99.90
20858;DHT22;10589;53.636;10.012;2023-04-15T06:51:20;8.10;99.90
20858;DHT22;10589;53.636;10.012;2023-04-15T06:53:45;8.10;99.90
20858;DHT22;10589;53.636;10.012;2023-04-15T06:56:11;8.20;99.90
20858;DHT22;10589;53.636;10.012;2023-04-15T06:58:37;8.20;99.90
20858;DHT22;10589;53.636;10.012;2023-04-15T07:01:02;8.20;99.90
20858;DHT22;10589;53.636;10.012;2023-04-15T07:03:28;8.20;99.90
20858;DHT22;10589;53.636;10.012;2023-04-15T07:05:54;8.30;99.90
20858;DHT22;10589;53.636;10.012;2023-04-15T07:08:19;8.30;99.90
20858;DHT22;10589;53.636;10.012;2023-04-15T07:10:46;8.30;99.90
20858;DHT22;10589;53.636;10.012;2023-04-15T07:13:12;8.20;99.90
20858;DHT22;10589;53.636;10.012;2023-04-15T07:15:37;8.20;99.90
20858;DHT22;10589;53.636;10.012;2023-04-15T07:18:03;8.30;99.90
20858;DHT22;10589;53.636;10.012;2023-04-15T07:20:29;8.30;99.90
20858;DHT22;10589;53.636;10.012;2023-04-15T07:22:55;8.40;99.90
20858;DHT22;10589;53.636;10.012;2023-04-15T07:25:20;8.30;99.90
20858;DHT22;10589;53.636;10.012;2023-04-15T07:27:46;8.30;99.90
20858;DHT22;10589;53.636;10.012;2023-04-15T07:30:12;8.30;99.90
20858;DHT22;10589;53.636;10.012;2023-04-15T07:32:37;8.40;99.90
20858;DHT22;10589;53.636;10.012;2023-04-15T07:35:03;8.40;99.90
20858;DHT22;10589;53.636;10.012;2023-04-15T07:37:29;8.40;99.90
20858;DHT22;10589;53.636;10.012;2023-04-15T07:39:55;8.40;99.90
20858;DHT22;10589;53.636;10.012;2023-04-15T07:42:21;8.50;99.90
20858;DHT22;10589;53.636;10.012;2023-04-15T07:44:46;8.50;99.90
20858;DHT22;10589;53.636;10.012;2023-04-15T07:47:12;8.50;99.90
20858;DHT22;10589;53.636;10.012;2023-04-15T07:49:38;8.50;99.90
20858;DHT22;10589;53.636;10.012;2023-04-15T07:52:03;8.50;99.90
20858;DHT22;10589;53.636;10.012;2023-04-15T07:54:29;8.60;99.90
20858;DHT22;10589;53.636;10.012;2023-04-15T07:56:54;8.60;99.90
20858;DHT22;10589;53.636;10.012;2023-04-15T07:59:21;8.60;99.90
20858;DHT22;10589;53.636;10.012;2023-04-15T08:01:47;8.50;99.90
20858;DHT22;10589;53.636;10.012;2023-04-15T08:04:13;8.60;99.90
20858;DHT22;10589;53.636;10.012;2023-04-15T08:06:39;8.60;99.90
20858;DHT22;10589;53.636;10.012;2023-04-15T08:09:05;8.70;99.90
20858;DHT22;10589;53.636;10.012;2023-04-15T08:11:31;8.70;99.90
20858;DHT22;10589;53.636;10.012;2023-04-15T08:13:57;8.70;99.90
20858;DHT22;10589;53.636;10.012;2023-04-15T08:16:24;8.80;99.90
20858;DHT22;10589;53.636;10.012;2023-04-15T08:18:52;8.80;99.90
20858;DHT22;10589;53.636;10.012;2023-04-15T08:21:19;8.80;99.90
20858;DHT22;10589;53.636;10.012;2023-04-15T08:23:46;8.70;99.90
20858;DHT22;10589;53.636;10.012;2023-04-15T08:26:12;8.80;99.90
20858;DHT22;10589;53.636;10.012;2023-04-15T08:28:39;8.80;99.90
20858;DHT22;10589;53.636;10.012;2023-04-15T08:31:05;8.90;99.90
20858;DHT22;10589;53.636;10.012;2023-04-15T08:33:31;9.00;99.90
20858;DHT22;10589;53.636;10.012;2023-04-15T08:35:57;9.10;99.90
20858;DHT22;10589;53.636;10.012;2023-04-15T08:38:22;9.20;99.90
20858;DHT22;10589;53.636;10.012;2023-04-15T08:40:48;9.10;99.90
20858;DHT22;10589;53.636;10.012;2023-04-15T08:43:31;9.10;99.90
20858;DHT22;10589;53.636;10.012;2023-04-15T08:45:58;9.10;99.90
20858;DHT22;10589;53.636;10.012;2023-04-15T08:48:28;9.10;99.90
20858;DHT22;10589;53.636;10.012;2023-04-15T08:50:54;9.10;99.90
20858;DHT22;10589;53.636;10.012;2023-04-15T08:53:20;9.20;99.90
20858;DHT22;10589;53.636;10.012;2023-04-15T08:55:50;9.20;99.90
20858;DHT22;10589;53.636;10.012;2023-04-15T08:58:17;9.20;99.90
20858;DHT22;10589;53.636;10.012;2023-04-15T09:00:44;9.20;99.90
20858;DHT22;10589;53.636;10.012;2023-04-15T09:03:10;9.20;99.90
20858;DHT22;10589;53.636;10.012;2023-04-15T09:05:36;9.20;99.90
20858;DHT22;10589;53.636;10.012;2023-04-15T09:08:03;9.40;99.90
20858;DHT22;10589;53.636;10.012;2023-04-15T09:10:30;9.50;99.90
20858;DHT22;10589;53.636;10.012;2023-04-15T09:12:57;9.60;99.90
20858;DHT22;10589;53.636;10.012;2023-04-15T09:15:25;9.70;99.90
20858;DHT22;10589;53.636;10.012;2023-04-15T09:17:54;9.80;99.90
20858;DHT22;10589;53.636;10.012;2023-04-15T09:20:21;9.80;99.90
20858;DHT22;10589;53.636;10.012;2023-04-15T09:22:48;9.80;99.90
20858;DHT22;10589;53.636;10.012;2023-04-15T09:27:54;10.00;99.90
20858;DHT22;10589;53.636;10.012;2023-04-15T09:30:21;10.00;99.90
20858;DHT22;10589;53.636;10.012;2023-04-15T09:32:53;10.10;99.90
20858;DHT22;10589;53.636;10.012;2023-04-15T09:35:23;10.20;99.90
20858;DHT22;10589;53.636;10.012;2023-04-15T09:37:52;10.40;99.90
20858;DHT22;10589;53.636;10.012;2023-04-15T09:40:31;10.60;99.90
20858;DHT22;10589;53.636;10.012;2023-04-15T09:42:58;10.80;99.90
20858;DHT22;10589;53.636;10.012;2023-04-15T09:45:24;11.10;99.90
20858;DHT22;10589;53.636;10.012;2023-04-15T09:47:50;11.10;99.90
20858;DHT22;10589;53.636;10.012;2023-04-15T09:50:18;11.10;99.90
20858;DHT22;10589;53.636;10.012;2023-04-15T09:52:44;11.10;99.90
20858;DHT22;10589;53.636;10.012;2023-04-15T09:55:11;11.30;99.90
20858;DHT22;10589;53.636;10.012;2023-04-15T09:57:37;11.40;99.90
20858;DHT22;10589;53.636;10.012;2023-04-15T10:00:04;11.50;99.90
20858;DHT22;10589;53.636;10.012;2023-04-15T10:02:32;11.70;99.90
20858;DHT22;10589;53.636;10.012;2023-04-15T10:04:58;12.00;99.90
20858;DHT22;10589;53.636;10.012;2023-04-15T10:07:25;12.10;99.90
20858;DHT22;10589;53.636;10.012;2023-04-15T10:09:52;12.20;99.90
20858;DHT22;10589;53.636;10.012;2023-04-15T10:12:18;12.50;99.90
20858;DHT22;10589;53.636;10.012;2023-04-15T10:14:51;12.90;99.90
20858;DHT22;10589;53.636;10.012;2023-04-15T10:17:21;13.20;99.90
20858;DHT22;10589;53.636;10.012;2023-04-15T10:19:48;13.30;99.90
20858;DHT22;10589;53.636;10.012;2023-04-15T10:22:14;13.40;99.90
20858;DHT22;10589;53.636;10.012;2023-04-15T10:24:40;13.90;99.90
20858;DHT22;10589;53.636;10.012;2023-04-15T10:27:07;14.00;99.90
20858;DHT22;10589;53.636;10.012;2023-04-15T10:29:33;14.20;99.90
20858;DHT22;10589;53.636;10.012;2023-04-15T10:31:59;13.80;99.90
20858;DHT22;10589;53.636;10.012;2023-04-15T10:34:26;13.50;99.90
20858;DHT22;10589;53.636;10.012;2023-04-15T10:36:57;13.30;99.90
20858;DHT22;10589;53.636;10.012;2023-04-15T10:39:44;13.30;99.90
20858;DHT22;10589;53.636;10.012;2023-04-15T10:44:42;13.40;99.90
20858;DHT22;10589;53.636;10.012;2023-04-15T10:47:12;13.50;99.90
20858;DHT22;10589;53.636;10.012;2023-04-15T10:49:48;13.50;99.90
20858;DHT22;10589;53.636;10.012;2023-04-15T10:52:16;13.50;99.90
20858;DHT22;10589;53.636;10.012;2023-04-15T10:54:42;13.50;99.90
20858;DHT22;10589;53.636;10.012;2023-04-15T10:57:20;13.70;99.90
20858;DHT22;10589;53.636;10.012;2023-04-15T11:02:44;14.10;99.90
20858;DHT22;10589;53.636;10.012;2023-04-15T11:05:12;14.40;99.90
20858;DHT22;10589;53.636;10.012;2023-04-15T11:07:54;14.70;99.90
20858;DHT22;10589;53.636;10.012;2023-04-15T11:13:03;14.60;99.90
20858;DHT22;10589;53.636;10.012;2023-04-15T11:15:31;14.40;99.90
20858;DHT22;10589;53.636;10.012;2023-04-15T11:17:58;14.20;99.90
20858;DHT22;10589;53.636;10.012;2023-04-15T11:20:25;14.00;99.90
20858;DHT22;10589;53.636;10.012;2023-04-15T11:22:52;13.90;99.90
20858;DHT22;10589;53.636;10.012;2023-04-15T11:25:26;13.90;99.90
20858;DHT22;10589;53.636;10.012;2023-04-15T11:27:53;13.70;99.90
20858;DHT22;10589;53.636;10.012;2023-04-15T11:30:23;13.70;99.90
20858;DHT22;10589;53.636;10.012;2023-04-15T11:32:51;13.70;99.90
20858;DHT22;10589;53.636;10.012;2023-04-15T11:35:18;13.60;99.90
20858;DHT22;10589;53.636;10.012;2023-04-15T11:37:47;13.60;99.90
20858;DHT22;10589;53.636;10.012;2023-04-15T11:40:21;13.80;99.90
20858;DHT22;10589;53.636;10.012;2023-04-15T11:43:12;13.70;99.90
20858;DHT22;10589;53.636;10.012;2023-04-15T11:45:51;13.50;99.90
20858;DHT22;10589;53.636;10.012;2023-04-15T11:48:17;13.40;99.90
20858;DHT22;10589;53.636;10.012;2023-04-15T11:50:43;13.40;99.90
20858;DHT22;10589;53.636;10.012;2023-04-15T11:53:11;13.50;99.90
20858;DHT22;10589;53.636;10.012;2023-04-15T11:55:48;13.60;99.90
20858;DHT22;10589;53.636;10.012;2023-04-15T11:58:19;13.90;99.90
20858;DHT22;10589;53.636;10.012;2023-04-15T12:08:50;13.40;99.90
20858;DHT22;10589;53.636;10.012;2023-04-15T12:13:55;13.20;99.90
20858;DHT22;10589;53.636;10.012;2023-04-15T12:16:21;13.10;99.90
20858;DHT22;10589;53.636;10.012;2023-04-15T12:18:55;13.10;99.90
20858;DHT22;10589;53.636;10.012;2023-04-15T12:21:22;13.10;99.90
20858;DHT22;10589;53.636;10.012;2023-04-15T12:23:55;13.00;99.90
20858;DHT22;10589;53.636;10.012;2023-04-15T12:26:30;13.00;99.90
20858;DHT22;10589;53.636;10.012;2023-04-15T12:29:03;12.90;99.90
20858;DHT22;10589;53.636;10.012;2023-04-15T12:31:29;13.10;99.90
20858;DHT22;10589;53.636;10.012;2023-04-15T12:33:56;13.10;99.90
20858;DHT22;10589;53.636;10.012;2023-04-15T12:36:22;13.10;99.90
20858;DHT22;10589;53.636;10.012;2023-04-15T12:38:48;13.00;99.90
20858;DHT22;10589;53.636;10.012;2023-04-15T12:41:14;13.10;99.90
20858;DHT22;10589;53.636;10.012;2023-04-15T12:43:39;13.20;99.90
20858;DHT22;10589;53.636;10.012;2023-04-15T12:46:06;13.40;99.90
20858;DHT22;10589;53.636;10.012;2023-04-15T12:48:33;13.70;99.90
20858;DHT22;10589;53.636;10.012;2023-04-15T12:51:06;14.00;99.90
20858;DHT22;10589;53.636;10.012;2023-04-15T12:53:32;14.20;99.90
20858;DHT22;10589;53.636;10.012;2023-04-15T12:55:59;14.10;99.90
20858;DHT22;10589;53.636;10.012;2023-04-15T12:58:24;14.20;99.90
20858;DHT22;10589;53.636;10.012;2023-04-15T13:00:50;14.40;99.90
20858;DHT22;10589;53.636;10.012;2023-04-15T13:03:16;14.80;99.90
20858;DHT22;10589;53.636;10.012;2023-04-15T13:05:41;14.80;99.90
20858;DHT22;10589;53.636;10.012;2023-04-15T13:08:08;14.70;99.90
20858;DHT22;10589;53.636;10.012;2023-04-15T13:10:35;14.50;99.90
20858;DHT22;10589;53.636;10.012;2023-04-15T13:13:04;14.50;99.90
20858;DHT22;10589;53.636;10.012;2023-04-15T13:15:30;14.50;99.90
20858;DHT22;10589;53.636;10.012;2023-04-15T13:17:56;14.60;99.90
20858;DHT22;10589;53.636;10.012;2023-04-15T13:20:21;14.70;99.90
20858;DHT22;10589;53.636;10.012;2023-04-15T13:22:47;15.20;99.90
20858;DHT22;10589;53.636;10.012;2023-04-15T13:25:13;15.30;99.90
20858;DHT22;10589;53.636;10.012;2023-04-15T13:27:38;15.40;99.90
20858;DHT22;10589;53.636;10.012;2023-04-15T13:30:05;15.30;99.90
20858;DHT22;10589;53.636;10.012;2023-04-15T13:32:30;15.20;99.90
20858;DHT22;10589;53.636;10.012;2023-04-15T13:34:56;15.60;99.90
20858;DHT22;10589;53.636;10.012;2023-04-15T13:37:26;16.30;99.90
20858;DHT22;10589;53.636;10.012;2023-04-15T13:39:52;16.20;99.90
20858;DHT22;10589;53.636;10.012;2023-04-15T13:42:18;16.60;99.90
20858;DHT22;10589;53.636;10.012;2023-04-15T13:44:44;17.10;99.90
20858;DHT22;10589;53.636;10.012;2023-04-15T13:47:09;17.80;99.90
20858;DHT22;10589;53.636;10.012;2023-04-15T13:49:35;17.90;99.90
20858;DHT22;10589;53.636;10.012;2023-04-15T13:52:01;18.00;99.90
20858;DHT22;10589;53.636;10.012;2023-04-15T13:54:26;18.40;99.90
20858;DHT22;10589;53.636;10.012;2023-04-15T13:56:53;17.80;99.90
20858;DHT22;10589;53.636;10.012;2023-04-15T13:59:20;16.60;99.90
20858;DHT22;10589;53.636;10.012;2023-04-15T14:01:46;16.00;99.90
20858;DHT22;10589;53.636;10.012;2023-04-15T14:04:12;15.30;99.90
20858;DHT22;10589;53.636;10.012;2023-04-15T14:06:38;14.90;99.90
20858;DHT22;10589;53.636;10.012;2023-04-15T14:09:03;14.80;99.90
20858;DHT22;10589;53.636;10.012;2023-04-15T14:11:29;14.90;99.90
20858;DHT22;10589;53.636;10.012;2023-04-15T14:13:54;14.80;99.90
20858;DHT22;10589;53.636;10.012;2023-04-15T14:16:20;14.60;99.90
20858;DHT22;10589;53.636;10.012;2023-04-15T14:18:46;14.40;99.90
20858;DHT22;10589;53.636;10.012;2023-04-15T14:21:11;14.20;99.90
20858;DHT22;10589;53.636;10.012;2023-04-15T14:23:37;14.50;99.90
20858;DHT22;10589;53.636;10.012;2023-04-15T14:26:03;14.90;99.90
20858;DHT22;10589;53.636;10.012;2023-04-15T14:28:28;15.20;99.90
20858;DHT22;10589;53.636;10.012;2023-04-15T14:30:54;15.00;99.90
20858;DHT22;10589;53.636;10.012;2023-04-15T14:33:19;14.80;99.90
20858;DHT22;10589;53.636;10.012;2023-04-15T14:35:45;15.30;99.90
20858;DHT22;10589;53.636;10.012;2023-04-15T14:38:11;16.10;99.90
20858;DHT22;10589;53.636;10.012;2023-04-15T14:40:36;16.20;99.90
20858;DHT22;10589;53.636;10.012;2023-04-15T14:43:03;16.00;99.90
20858;DHT22;10589;53.636;10.012;2023-04-15T14:45:29;15.40;99.90
20858;DHT22;10589;53.636;10.012;2023-04-15T14:47:55;15.00;99.90
20858;DHT22;10589;53.636;10.012;2023-04-15T14:50:21;14.50;99.90
20858;DHT22;10589;53.636;10.012;2023-04-15T14:52:46;14.20;99.90
20858;DHT22;10589;53.636;10.012;2023-04-15T14:55:12;14.00;99.90
20858;DHT22;10589;53.636;10.012;2023-04-15T14:57:39;13.90;99.90
20858;DHT22;10589;53.636;10.012;2023-04-15T15:00:06;13.80;99.90
20858;DHT22;10589;53.636;10.012;2023-04-15T15:02:33;13.90;99.90
20858;DHT22;10589;53.636;10.012;2023-04-15T15:05:00;13.80;99.90
20858;DHT22;10589;53.636;10.012;2023-04-15T15:07:26;13.80;99.90
20858;DHT22;10589;53.636;10.012;2023-04-15T15:09:53;13.80;99.90
20858;DHT22;10589;53.636;10.012;2023-04-15T15:12:18;13.70;99.90
20858;DHT22;10589;53.636;10.012;2023-04-15T15:14:44;13.60;99.90
20858;DHT22;10589;53.636;10.012;2023-04-15T15:17:10;13.70;99.90
20858;DHT22;10589;53.636;10.012;2023-04-15T15:19:35;13.80;99.90
20858;DHT22;10589;53.636;10.012;2023-04-15T15:22:02;13.90;99.90
20858;DHT22;10589;53.636;10.012;2023-04-15T15:24:28;13.90;99.90
20858;DHT22;10589;53.636;10.012;2023-04-15T15:26:54;14.00;99.90
20858;DHT22;10589;53.636;10.012;2023-04-15T15:29:19;13.80;99.90
20858;DHT22;10589;53.636;10.012;2023-04-15T15:31:45;13.70;99.90
20858;DHT22;10589;53.636;10.012;2023-04-15T15:34:11;13.80;99.90
20858;DHT22;10589;53.636;10.012;2023-04-15T15:36:36;13.60;99.90
20858;DHT22;10589;53.636;10.012;2023-04-15T15:39:02;13.60;99.90
20858;DHT22;10589;53.636;10.012;2023-04-15T15:41:28;13.60;99.90
20858;DHT22;10589;53.636;10.012;2023-04-15T15:43:53;13.70;99.90
20858;DHT22;10589;53.636;10.012;2023-04-15T15:46:19;13.70;99.90
20858;DHT22;10589;53.636;10.012;2023-04-15T15:48:45;13.60;99.90
20858;DHT22;10589;53.636;10.012;2023-04-15T15:51:10;13.50;99.90
20858;DHT22;10589;53.636;10.012;2023-04-15T15:53:37;13.50;99.90
20858;DHT22;10589;53.636;10.012;2023-04-15T15:56:03;13.40;99.90
20858;DHT22;10589;53.636;10.012;2023-04-15T15:58:30;13.40;99.90
20858;DHT22;10589;53.636;10.012;2023-04-15T16:00:55;13.30;99.90
20858;DHT22;10589;53.636;10.012;2023-04-15T16:03:22;13.20;99.90
20858;DHT22;10589;53.636;10.012;2023-04-15T16:05:48;13.00;99.90
20858;DHT22;10589;53.636;10.012;2023-04-15T16:08:14;12.90;99.90
20858;DHT22;10589;53.636;10.012;2023-04-15T16:10:40;12.80;99.90
20858;DHT22;10589;53.636;10.012;2023-04-15T16:13:06;12.70;99.90
20858;DHT22;10589;53.636;10.012;2023-04-15T16:15:32;12.70;99.90
20858;DHT22;10589;53.636;10.012;2023-04-15T16:17:58;12.60;99.90
20858;DHT22;10589;53.636;10.012;2023-04-15T16:20:24;12.50;99.90
20858;DHT22;10589;53.636;10.012;2023-04-15T16:22:50;12.50;99.90
20858;DHT22;10589;53.636;10.012;2023-04-15T16:25:15;12.50;99.90
20858;DHT22;10589;53.636;10.012;2023-04-15T16:27:41;12.40;99.90
20858;DHT22;10589;53.636;10.012;2023-04-15T16:30:08;12.40;99.90
20858;DHT22;10589;53.636;10.012;2023-04-15T16:32:34;12.30;99.90
20858;DHT22;10589;53.636;10.012;2023-04-15T16:35:00;12.30;99.90
20858;DHT22;10589;53.636;10.012;2023-04-15T16:37:25;12.30;99.90
20858;DHT22;10589;53.636;10.012;2023-04-15T16:39:52;12.20;99.90
20858;DHT22;10589;53.636;10.012;2023-04-15T16:42:17;12.20;99.90
20858;DHT22;10589;53.636;10.012;2023-04-15T16:44:43;12.10;99.90
20858;DHT22;10589;53.636;10.012;2023-04-15T16:47:08;12.10;99.90
20858;DHT22;10589;53.636;10.012;2023-04-15T16:49:36;12.10;99.90
20858;DHT22;10589;53.636;10.012;2023-04-15T16:52:02;12.10;99.90
20858;DHT22;10589;53.636;10.012;2023-04-15T16:54:28;12.10;99.90
20858;DHT22;10589;53.636;10.012;2023-04-15T16:56:57;12.10;99.90
20858;DHT22;10589;53.636;10.012;2023-04-15T16:59:23;12.00;99.90
20858;DHT22;10589;53.636;10.012;2023-04-15T17:01:49;12.00;99.90
20858;DHT22;10589;53.636;10.012;2023-04-15T17:04:15;11.90;99.90
20858;DHT22;10589;53.636;10.012;2023-04-15T17:06:41;12.00;99.90
20858;DHT22;10589;53.636;10.012;2023-04-15T17:09:06;11.90;99.90
20858;DHT22;10589;53.636;10.012;2023-04-15T17:11:32;11.90;99.90
20858;DHT22;10589;53.636;10.012;2023-04-15T17:14:00;11.90;99.90
20858;DHT22;10589;53.636;10.012;2023-04-15T17:16:26;11.80;99.90
20858;DHT22;10589;53.636;10.012;2023-04-15T17:18:52;11.80;99.90
20858;DHT22;10589;53.636;10.012;2023-04-15T17:21:17;11.70;99.90
20858;DHT22;10589;53.636;10.012;2023-04-15T17:23:43;11.70;99.90
20858;DHT22;10589;53.636;10.012;2023-04-15T17:26:09;11.70;99.90
20858;DHT22;10589;53.636;10.012;2023-04-15T17:28:34;11.60;99.90
20858;DHT22;10589;53.636;10.012;2023-04-15T17:31:00;11.60;99.90
20858;DHT22;10589;53.636;10.012;2023-04-15T17:33:26;11.60;99.90
20858;DHT22;10589;53.636;10.012;2023-04-15T17:35:51;11.60;99.90
20858;DHT22;10589;53.636;10.012;2023-04-15T17:38:17;11.50;99.90
20858;DHT22;10589;53.636;10.012;2023-04-15T17:40:42;11.50;99.90
20858;DHT22;10589;53.636;10.012;2023-04-15T17:43:08;11.50;99.90
20858;DHT22;10589;53.636;10.012;2023-04-15T17:45:34;11.50;99.90
20858;DHT22;10589;53.636;10.012;2023-04-15T17:48:00;11.40;99.90
20858;DHT22;10589;53.636;10.012;2023-04-15T17:50:27;11.40;99.90
20858;DHT22;10589;53.636;10.012;2023-04-15T17:52:53;11.40;99.90
20858;DHT22;10589;53.636;10.012;2023-04-15T17:55:19;11.40;99.90
20858;DHT22;10589;53.636;10.012;2023-04-15T17:57:46;11.30;99.90
20858;DHT22;10589;53.636;10.012;2023-04-15T18:00:12;11.20;99.90
20858;DHT22;10589;53.636;10.012;2023-04-15T18:02:39;11.20;99.90
20858;DHT22;10589;53.636;10.012;2023-04-15T18:05:05;11.10;99.90
20858;DHT22;10589;53.636;10.012;2023-04-15T18:07:31;11.00;99.90
20858;DHT22;10589;53.636;10.012;2023-04-15T18:09:56;11.00;99.90
20858;DHT22;10589;53.636;10.012;2023-04-15T18:12:22;10.90;99.90
20858;DHT22;10589;53.636;10.012;2023-04-15T18:14:47;10.80;99.90
20858;DHT22;10589;53.636;10.012;2023-04-15T18:17:13;10.70;99.90
20858;DHT22;10589;53.636;10.012;2023-04-15T18:19:39;10.70;99.90
20858;DHT22;10589;53.636;10.012;2023-04-15T18:22:05;10.60;99.90
20858;DHT22;10589;53.636;10.012;2023-04-15T18:24:30;10.50;99.90
20858;DHT22;10589;53.636;10.012;2023-04-15T18:26:56;10.50;99.90
20858;DHT22;10589;53.636;10.012;2023-04-15T18:29:23;10.50;99.90
20858;DHT22;10589;53.636;10.012;2023-04-15T18:31:50;10.40;99.90
20858;DHT22;10589;53.636;10.012;2023-04-15T18:34:16;10.40;99.90
20858;DHT22;10589;53.636;10.012;2023-04-15T18:36:42;10.30;99.90
20858;DHT22;10589;53.636;10.012;2023-04-15T18:39:08;10.30;99.90
20858;DHT22;10589;53.636;10.012;2023-04-15T18:41:33;10.30;99.90
20858;DHT22;10589;53.636;10.012;2023-04-15T18:43:59;10.20;99.90
20858;DHT22;10589;53.636;10.012;2023-04-15T18:46:26;10.20;99.90
20858;DHT22;10589;53.636;10.012;2023-04-15T18:48:51;10.10;99.90
20858;DHT22;10589;53.636;10.012;2023-04-15T18:51:17;10.00;99.90
20858;DHT22;10589;53.636;10.012;2023-04-15T18:53:43;10.00;99.90
20858;DHT22;10589;53.636;10.012;2023-04-15T18:56:09;9.90;99.90
20858;DHT22;10589;53.636;10.012;2023-04-15T18:58:34;9.90;99.90
20858;DHT22;10589;53.636;10.012;2023-04-15T19:01:00;9.90;99.90
20858;DHT22;10589;53.636;10.012;2023-04-15T19:03:26;9.90;99.90
20858;DHT22;10589;53.636;10.012;2023-04-15T19:05:52;9.80;99.90
20858;DHT22;10589;53.636;10.012;2023-04-15T19:08:17;9.80;99.90
20858;DHT22;10589;53.636;10.012;2023-04-15T19:10:43;9.80;99.90
20858;DHT22;10589;53.636;10.012;2023-04-15T19:13:08;9.80;99.90
20858;DHT22;10589;53.636;10.012;2023-04-15T19:15:34;9.80;99.90
20858;DHT22;10589;53.636;10.012;2023-04-15T19:18:00;9.70;99.90
20858;DHT22;10589;53.636;10.012;2023-04-15T19:20:26;9.70;99.90
20858;DHT22;10589;53.636;10.012;2023-04-15T19:22:53;9.70;99.90
20858;DHT22;10589;53.636;10.012;2023-04-15T19:25:19;9.60;99.90